Time;durP1;ratioP1;P1;durP2;ratioP2;P2;SDS_P1;SDS_P2;PMS_P1;PMS_P2;Temp;Humidity;BMP_temperature;BMP_pressure;BME280_temperature;BME280_humidity;BME280_pressure;Samples;Min_cycle;Max_cycle;Signal;HPM_P1;HPM_P2
2022/12/10 00:00:36;;;;;;;64.70;40.93;;;;;;;-1.56;89.37;100745.88;5077076;28;20120;-71
2022/12/10 00:03:01;;;;;;;66.63;40.80;;;;;;;-1.56;88.61;100734.59;5095331;28;20111;-71
2022/12/10 00:05:27;;;;;;;73.83;43.90;;;;;;;-1.66;88.89;100739.94;5060550;28;20059;-70
2022/12/10 00:07:52;;;;;;;72.93;42.83;;;;;;;-1.63;89.36;100744.25;5094979;28;20081;-70
2022/12/10 00:10:18;;;;;;;71.30;44.93;;;;;;;-1.61;89.25;100750.31;5094815;28;20034;-70
2022/12/10 00:12:46;;;;;;;76.53;45.40;;;;;;;-1.62;90.11;100751.19;5095215;28;20105;-71
2022/12/10 00:15:12;;;;;;;77.97;45.30;;;;;;;-1.61;89.70;100750.31;5059699;28;20085;-70
2022/12/10 00:17:38;;;;;;;74.30;44.77;;;;;;;-1.70;89.89;100753.06;5076386;28;20032;-71
2022/12/10 00:20:04;;;;;;;72.30;44.57;;;;;;;-1.72;90.10;100752.22;5076607;28;20122;-71
2022/12/10 00:22:30;;;;;;;70.73;43.27;;;;;;;-1.79;89.93;100759.28;5059778;28;20032;-70
2022/12/10 00:24:56;;;;;;;68.53;43.13;;;;;;;-1.76;89.04;100758.38;5094917;28;20027;-71
2022/12/10 00:27:21;;;;;;;76.00;45.47;;;;;;;-1.75;89.89;100757.47;5076144;28;20043;-70
2022/12/10 00:29:47;;;;;;;67.97;44.93;;;;;;;-1.76;89.25;100763.59;5094751;28;20044;-70
2022/12/10 00:32:12;;;;;;;72.33;43.57;;;;;;;-1.76;89.37;100756.63;5056050;28;20552;-71
2022/12/10 00:34:38;;;;;;;76.80;46.03;;;;;;;-1.75;89.96;100760.09;5056568;28;20033;-71
2022/12/10 00:37:04;;;;;;;69.60;44.73;;;;;;;-1.75;89.21;100767.91;5078523;28;20448;-71
2022/12/10 00:39:32;;;;;;;70.57;43.10;;;;;;;-1.71;88.62;100767.81;5040633;28;20395;-71
2022/12/10 00:41:59;;;;;;;68.50;43.03;;;;;;;-1.74;89.53;100767.00;5078629;28;20046;-71
2022/12/10 00:44:24;;;;;;;71.93;44.90;;;;;;;-1.75;89.66;100760.94;5095141;28;20074;-70
2022/12/10 00:46:50;;;;;;;71.13;46.00;;;;;;;-1.77;89.94;100759.22;5075096;28;20502;-71
2022/12/10 00:49:17;;;;;;;76.10;47.10;;;;;;;-1.83;89.69;100754.97;5075078;28;20558;-71
2022/12/10 00:51:44;;;;;;;68.90;43.60;;;;;;;-1.81;88.95;100755.81;5059173;28;20038;-71
2022/12/10 00:54:11;;;;;;;68.27;42.63;;;;;;;-1.84;88.85;100748.03;5093621;28;20460;-71
2022/12/10 00:56:36;;;;;;;71.77;44.50;;;;;;;-1.86;89.30;100744.59;5094576;28;20055;-71
2022/12/10 00:59:02;;;;;;;71.23;45.87;;;;;;;-1.95;89.31;100742.97;5075694;28;20058;-71
2022/12/10 01:01:34;;;;;;;68.43;43.73;;;;;;;-1.86;89.00;100741.97;5094021;28;20050;-71
2022/12/10 01:04:04;;;;;;;67.57;44.53;;;;;;;-1.91;88.66;100741.16;5093679;28;20524;-71
2022/12/10 01:06:33;;;;;;;69.93;44.10;;;;;;;-1.88;88.73;100735.94;5094490;28;20042;-71
2022/12/10 01:09:01;;;;;;;70.10;43.73;;;;;;;-1.90;88.91;100740.31;5075928;28;20024;-71
2022/12/10 01:11:29;;;;;;;66.57;43.20;;;;;;;-1.91;89.10;100743.78;5075624;28;20028;-71
2022/12/10 01:13:55;;;;;;;69.27;44.07;;;;;;;-1.96;88.40;100733.44;5093420;28;20051;-71
2022/12/10 01:16:22;;;;;;;66.33;43.30;;;;;;;-1.92;88.70;100742.06;5094144;28;20031;-71
2022/12/10 01:18:48;;;;;;;74.17;46.13;;;;;;;-2.03;88.43;100744.78;5093679;28;20052;-71
2022/12/10 01:21:17;;;;;;;68.30;44.17;;;;;;;-1.97;88.87;100738.66;5094044;28;20071;-71
2022/12/10 01:23:44;;;;;;;71.63;45.77;;;;;;;-1.99;88.49;100746.50;5093346;28;20032;-71
2022/12/10 01:26:13;;;;;;;68.57;43.83;;;;;;;-1.96;89.15;100756.88;5093876;28;20059;-71
2022/12/10 01:28:40;;;;;;;72.27;45.73;;;;;;;-2.02;88.71;100750.91;5075012;28;20028;-71
2022/12/10 01:31:13;;;;;;;72.43;46.50;;;;;;;-1.99;89.79;100756.06;5093619;28;20028;-71
2022/12/10 01:33:39;;;;;;;76.20;48.13;;;;;;;-2.00;90.27;100767.34;5092920;28;20032;-71
2022/12/10 01:36:09;;;;;;;77.30;47.43;;;;;;;-2.07;90.59;100762.22;5075478;28;20071;-71
2022/12/10 01:38:35;;;;;;;76.82;47.95;;;;;;;-2.00;91.10;100770.84;5093362;28;20032;-71
2022/12/10 01:41:01;;;;;;;85.73;50.90;;;;;;;-2.03;91.50;100767.41;5075382;28;20020;-71
2022/12/10 01:43:26;;;;;;;86.27;51.77;;;;;;;-2.07;91.48;100771.78;5054073;28;20076;-70
2022/12/10 01:45:52;;;;;;;83.97;51.63;;;;;;;-2.04;91.73;100786.53;5035427;28;20127;-71
2022/12/10 01:48:19;;;;;;;94.80;52.73;;;;;;;-2.06;92.02;100783.94;5052736;28;20083;-71
2022/12/10 01:50:44;;;;;;;81.07;49.10;;;;;;;-2.09;91.91;100770.94;5053243;28;20025;-71
2022/12/10 01:53:13;;;;;;;84.77;50.73;;;;;;;-2.07;92.24;100785.69;5074945;28;20032;-71
2022/12/10 01:55:43;;;;;;;81.87;50.60;;;;;;;-2.03;91.64;100778.66;5065696;28;20024;-71
2022/12/10 01:58:09;;;;;;;85.18;51.53;;;;;;;-2.09;91.63;100766.63;5074620;28;20043;-71
2022/12/10 02:00:41;;;;;;;125.73;52.23;;;;;;;-2.14;92.35;100783.19;5054256;28;20499;-71
2022/12/10 02:03:13;;;;;;;108.53;46.27;;;;;;;-2.15;92.47;100782.28;5059582;28;20249;-71
2022/12/10 02:05:51;;;;;;;85.53;49.90;;;;;;;-2.25;93.28;100778.09;5051692;28;20024;-71
2022/12/10 02:08:37;;;;;;;87.27;50.67;;;;;;;-2.21;93.46;100778.91;5052748;28;20032;-71
2022/12/10 02:11:03;;;;;;;88.57;52.33;;;;;;;-2.26;94.23;100780.69;5052872;28;20025;-71
2022/12/10 02:13:41;;;;;;;82.70;51.43;;;;;;;-2.28;94.35;100772.91;5066574;28;20027;-71
2022/12/10 02:16:20;;;;;;;93.93;51.73;;;;;;;-2.28;94.80;100785.94;5064709;28;20446;-71
2022/12/10 02:18:51;;;;;;;92.63;51.90;;;;;;;-2.32;95.10;100773.84;5075904;28;20028;-71
2022/12/10 02:21:25;;;;;;;84.53;50.03;;;;;;;-2.35;94.99;100779.09;5070681;28;20468;-71
2022/12/10 02:24:04;;;;;;;83.30;49.97;;;;;;;-2.30;95.49;100762.50;5069894;28;20016;-71
2022/12/10 02:26:43;;;;;;;93.63;53.63;;;;;;;-2.28;95.90;100770.31;5064744;28;20495;-71
2022/12/10 02:29:16;;;;;;;94.28;52.50;;;;;;;-2.22;95.17;100775.44;5055331;28;20028;-71
2022/12/10 02:31:46;;;;;;;91.27;53.47;;;;;;;-2.21;95.27;100774.56;5072103;28;20025;-71
2022/12/10 02:34:14;;;;;;;93.03;53.88;;;;;;;-2.24;96.35;100777.19;5070766;28;20475;-71
2022/12/10 02:36:43;;;;;;;82.37;50.80;;;;;;;-2.26;96.17;100773.78;5072229;28;20029;-71
2022/12/10 02:39:12;;;;;;;86.90;52.93;;;;;;;-2.22;96.34;100771.97;5050586;28;20028;-71
2022/12/10 02:41:42;;;;;;;87.33;52.10;;;;;;;-2.18;96.26;100768.44;5052019;28;20029;-71
2022/12/10 02:44:11;;;;;;;94.07;48.27;;;;;;;-2.12;96.50;100769.25;5074142;28;20056;-71
2022/12/10 02:46:40;;;;;;;87.20;52.83;;;;;;;-2.06;96.63;100771.78;5102171;28;20115;-71
2022/12/10 02:49:08;;;;;;;87.07;52.43;;;;;;;-2.05;96.64;100762.22;5077635;28;20040;-71
2022/12/10 02:51:33;;;;;;;87.27;52.23;;;;;;;-1.97;96.26;100764.72;5075416;28;20043;-71
2022/12/10 02:54:05;;;;;;;85.30;50.43;;;;;;;-1.98;96.57;100756.03;5091755;28;20036;-71
2022/12/10 02:56:34;;;;;;;86.77;52.70;;;;;;;-1.97;96.74;100763.00;5073977;28;20390;-70
2022/12/10 02:59:28;;;;;;;86.65;52.08;;;;;;;-1.92;95.92;100760.31;5073445;28;20062;-71
2022/12/10 03:02:10;;;;;;;87.10;51.30;;;;;;;-1.89;96.99;100776.75;5091605;28;20016;-71
2022/12/10 03:05:05;;;;;;;84.10;51.00;;;;;;;-1.87;96.67;100779.34;5091748;28;20067;-71
2022/12/10 03:07:48;;;;;;;87.03;49.93;;;;;;;-1.83;96.82;100781.88;5092087;28;20031;-71
2022/12/10 03:10:29;;;;;;;85.43;51.23;;;;;;;-1.93;96.44;100775.09;5092286;28;20027;-71
2022/12/10 03:13:00;;;;;;;;;;;;;;;-1.66;94.91;100775.59;5091633;28;20034;-71
2022/12/10 03:15:29;;;;;;;87.00;49.90;;;;;;;-1.89;95.97;100775.91;5073678;28;19904;-71
2022/12/10 03:17:56;;;;;;;91.38;51.78;;;;;;;-1.81;95.89;100776.66;5091918;28;20019;-71
2022/12/10 03:20:23;;;;;;;89.80;53.57;;;;;;;-1.81;96.44;100779.28;5091884;28;20020;-71
2022/12/10 03:22:49;;;;;;;89.13;51.83;;;;;;;-1.78;96.06;100783.59;5091461;28;20039;-71
2022/12/10 03:25:25;;;;;;;95.10;53.43;;;;;;;-1.78;96.37;100776.63;5073648;28;20032;-71
2022/12/10 03:27:55;;;;;;;97.70;50.93;;;;;;;-1.80;96.03;100770.56;5091008;28;20085;-71
2022/12/10 03:30:21;;;;;;;;;;;;;;;-1.70;96.51;100779.13;5091673;28;20039;-71
2022/12/10 03:32:46;;;;;;;81.83;49.77;;;;;;;-1.73;95.94;100776.56;5091165;28;20232;-71
2022/12/10 03:35:13;;;;;;;96.73;51.87;;;;;;;-1.83;95.74;100774.06;5091910;28;20491;-71
2022/12/10 03:37:39;;;;;;;89.23;51.30;;;;;;;-1.94;96.48;100782.91;5073147;28;20051;-71
2022/12/10 03:40:06;;;;;;;135.43;52.60;;;;;;;-1.99;96.55;100780.38;5073692;28;20048;-71
2022/12/10 03:42:32;;;;;;;85.27;51.20;;;;;;;-1.94;96.43;100777.69;5072680;28;20056;-71
2022/12/10 03:44:58;;;;;;;87.90;51.07;;;;;;;-1.98;96.79;100779.47;5056725;28;20079;-71
2022/12/10 03:47:24;;;;;;;92.57;53.23;;;;;;;-1.93;97.80;100777.69;5091567;28;20141;-71
2022/12/10 03:49:49;;;;;;;94.77;54.83;;;;;;;-1.84;97.71;100779.31;5089430;28;20106;-71
2022/12/10 03:52:15;;;;;;;85.00;51.20;;;;;;;-1.81;97.18;100783.63;5055890;28;20063;-71
2022/12/10 03:54:41;;;;;;;88.40;51.03;;;;;;;-1.84;97.20;100789.75;5055139;28;20115;-71
2022/12/10 03:57:06;;;;;;;93.50;51.40;;;;;;;-1.83;96.79;100789.72;5089703;28;20472;-71
2022/12/10 03:59:32;;;;;;;110.17;52.27;;;;;;;-1.89;97.56;100795.00;5090452;28;20024;-71
2022/12/10 04:01:58;;;;;;;97.53;54.07;;;;;;;-1.91;97.50;100788.97;5055947;28;20024;-71
2022/12/10 04:04:24;;;;;;;93.40;53.63;;;;;;;-1.94;97.25;100782.91;5055852;28;20051;-71
2022/12/10 04:06:50;;;;;;;95.67;52.43;;;;;;;-1.91;97.14;100790.69;5091005;28;20024;-70
2022/12/10 04:09:16;;;;;;;96.97;59.43;;;;;;;-1.90;97.98;100800.25;5090884;28;20042;-71
2022/12/10 04:11:42;;;;;;;97.87;52.53;;;;;;;-1.85;98.12;100793.25;5073931;28;20028;-70
2022/12/10 04:16:54;;;;;;;95.17;54.40;;;;;;;-1.86;97.71;100796.72;5094821;28;20042;-71
2022/12/10 04:19:20;;;;;;;97.23;53.17;;;;;;;-1.89;97.48;100791.53;5093438;28;20103;-71
2022/12/10 04:27:24;;;;;;;97.83;52.87;;;;;;;-1.79;97.93;100793.16;5094580;28;20541;-71
2022/12/10 04:29:52;;;;;;;107.30;53.03;;;;;;;-1.83;97.02;100786.25;5076078;28;20073;-71
2022/12/10 04:32:18;;;;;;;97.93;54.33;;;;;;;-1.84;97.39;100792.34;5076619;28;20437;-71
2022/12/10 04:34:44;;;;;;;98.17;50.83;;;;;;;-1.89;97.22;100792.41;5094567;28;20032;-70
2022/12/10 04:37:13;;;;;;;120.40;53.67;;;;;;;-1.94;97.25;100799.44;5093758;28;20024;-70
2022/12/10 04:39:39;;;;;;;115.77;55.30;;;;;;;-2.00;97.35;100799.50;5080754;28;20027;-70
2022/12/10 04:42:05;;;;;;;111.67;53.33;;;;;;;-2.06;97.68;100800.44;5075256;28;20093;-70
2022/12/10 04:44:31;;;;;;;104.20;55.97;;;;;;;-1.98;98.17;100804.69;5074400;28;20510;-70
2022/12/10 04:46:57;;;;;;;149.57;54.37;;;;;;;-2.01;97.91;100804.72;5075845;28;20039;-71
2022/12/10 04:49:23;;;;;;;96.10;50.93;;;;;;;-1.98;98.12;100799.47;5076225;28;20059;-70
2022/12/10 04:51:49;;;;;;;126.33;57.33;;;;;;;-1.97;97.67;100795.97;5094338;28;20054;-70
2022/12/10 04:54:15;;;;;;;99.60;57.00;;;;;;;-1.95;98.36;100802.03;5093878;28;20060;-70
2022/12/10 04:56:41;;;;;;;103.13;61.10;;;;;;;-1.92;98.06;100802.84;5072260;28;20056;-70
2022/12/10 04:59:07;;;;;;;96.07;50.37;;;;;;;-1.85;98.30;100808.88;5055726;28;20041;-70
2022/12/10 05:01:33;;;;;;;98.27;56.50;;;;;;;-1.87;98.51;100806.28;5087242;28;20036;-71
2022/12/10 05:04:02;;;;;;;100.57;59.87;;;;;;;-1.86;97.88;100810.59;5093781;28;20375;-70
2022/12/10 05:06:27;;;;;;;92.50;52.80;;;;;;;-1.78;98.38;100814.88;5076517;28;20040;-70
2022/12/10 05:08:53;;;;;;;110.87;51.73;;;;;;;-1.88;97.10;100804.56;5076204;28;20141;-70
2022/12/10 05:11:21;;;;;;;103.67;54.30;;;;;;;-1.93;97.83;100802.91;5075822;28;20028;-70
2022/12/10 05:13:49;;;;;;;102.53;60.33;;;;;;;-1.94;97.78;100808.97;5093333;28;20032;-70
2022/12/10 05:16:18;;;;;;;100.50;53.47;;;;;;;-1.89;97.08;100804.56;5094380;28;20486;-70
2022/12/10 05:18:46;;;;;;;94.10;52.47;;;;;;;-1.91;98.46;100801.09;5094104;28;20028;-70
2022/12/10 05:21:20;;;;;;;102.37;53.00;;;;;;;-1.81;98.26;100809.69;5093743;28;20093;-70
2022/12/10 05:23:49;;;;;;;101.10;53.00;;;;;;;-1.78;98.16;100807.06;5075707;28;20036;-70
2022/12/10 05:26:18;;;;;;;96.10;52.20;;;;;;;-1.73;97.66;100811.31;5075757;28;20026;-70
2022/12/10 05:28:53;;;;;;;93.83;52.47;;;;;;;-1.80;97.80;100816.63;5093632;28;20027;-70
2022/12/10 05:31:24;;;;;;;98.50;53.30;;;;;;;-1.80;98.53;100809.66;5093777;28;20390;-70
2022/12/10 05:33:50;;;;;;;101.20;55.07;;;;;;;-1.77;98.01;100816.59;5075208;28;20028;-70
2022/12/10 05:36:17;;;;;;;101.30;59.57;;;;;;;-1.81;97.97;100820.13;5075639;28;20131;-70
2022/12/10 05:38:44;;;;;;;96.80;52.80;;;;;;;-1.78;97.80;100813.13;5075251;28;20032;-70
2022/12/10 05:41:15;;;;;;;99.43;54.13;;;;;;;-1.73;98.28;100807.84;5075453;28;20067;-70
2022/12/10 05:43:42;;;;;;;101.97;56.50;;;;;;;-1.78;97.43;100802.69;5092831;28;20487;-70
2022/12/10 05:46:12;;;;;;;98.67;53.07;;;;;;;-1.78;98.01;100801.84;5093316;28;20032;-70
2022/12/10 05:48:38;;;;;;;89.90;50.53;;;;;;;-1.83;97.82;100797.53;5092859;28;20514;-71
2022/12/10 05:51:11;;;;;;;94.23;52.43;;;;;;;-1.87;97.95;100803.66;5092860;28;20040;-70
2022/12/10 05:53:37;;;;;;;98.70;57.43;;;;;;;-1.85;98.82;100807.13;5092481;28;20487;-70
2022/12/10 05:56:07;;;;;;;96.50;51.70;;;;;;;-1.83;98.38;100817.53;5093297;28;20028;-70
2022/12/10 05:58:39;;;;;;;100.17;51.03;;;;;;;-1.79;98.25;100816.63;5074294;28;20107;-71
2022/12/10 06:01:19;;;;;;;107.43;56.77;;;;;;;-1.82;98.75;100814.06;5074722;28;20455;-70
2022/12/10 06:03:45;;;;;;;104.65;51.55;;;;;;;-1.77;97.96;100817.44;5093214;28;20054;-70
2022/12/10 06:06:11;;;;;;;101.67;51.03;;;;;;;-1.79;98.68;100816.63;5074909;28;20028;-70
2022/12/10 06:08:36;;;;;;;103.50;51.23;;;;;;;-1.86;98.08;100810.59;5092362;28;20352;-70
2022/12/10 06:11:08;;;;;;;112.70;54.87;;;;;;;-1.84;97.87;100816.66;5073686;28;20031;-70
2022/12/10 06:13:34;;;;;;;104.33;53.10;;;;;;;-1.88;98.30;100817.59;5086785;28;20494;-70
2022/12/10 06:16:05;;;;;;;96.83;54.43;;;;;;;-1.90;99.24;100813.28;5080653;28;20015;-70
2022/12/10 06:18:33;;;;;;;99.53;50.60;;;;;;;-1.90;98.34;100824.56;5092802;28;20062;-70
2022/12/10 06:20:59;;;;;;;96.43;50.30;;;;;;;-1.79;98.89;100818.34;5096427;28;20374;-70
2022/12/10 06:23:25;;;;;;;104.23;54.30;;;;;;;-1.76;99.00;100824.41;5074002;28;20028;-70
2022/12/10 06:25:50;;;;;;;107.47;54.50;;;;;;;-1.81;98.20;100822.72;5074473;28;20032;-70
2022/12/10 06:28:16;;;;;;;95.83;48.20;;;;;;;-1.84;98.63;100831.44;5073901;28;20024;-70
2022/12/10 06:30:42;;;;;;;95.27;50.53;;;;;;;-1.80;98.39;100827.91;5092716;28;20024;-70
2022/12/10 06:33:10;;;;;;;97.63;52.40;;;;;;;-1.85;98.64;100827.97;5074590;28;20028;-70
2022/12/10 06:35:39;;;;;;;101.40;53.47;;;;;;;-1.92;98.78;100823.72;5073265;28;20074;-69
2022/12/10 06:38:05;;;;;;;96.22;49.63;;;;;;;-1.84;98.33;100823.63;5085699;28;20526;-70
2022/12/10 06:40:30;;;;;;;99.17;52.13;;;;;;;-1.91;98.30;100827.16;5074277;28;20039;-69
2022/12/10 06:42:55;;;;;;;116.30;58.00;;;;;;;-1.88;98.38;100829.78;5072864;28;20039;-70
2022/12/10 06:45:24;;;;;;;106.30;54.47;;;;;;;-1.89;98.56;100828.03;5073103;28;20063;-70
2022/12/10 06:47:49;;;;;;;108.40;59.43;;;;;;;-1.90;98.81;100844.56;5076667;28;20035;-70
2022/12/10 06:50:15;;;;;;;102.73;58.27;;;;;;;-1.90;98.87;100834.13;5074278;28;20085;-70
2022/12/10 06:52:41;;;;;;;109.73;53.93;;;;;;;-1.81;99.23;100836.63;5091717;28;20028;-69
2022/12/10 06:55:07;;;;;;;105.67;55.70;;;;;;;-1.84;98.83;100839.25;5073676;28;20036;-70
2022/12/10 06:57:32;;;;;;;118.57;57.43;;;;;;;-1.89;98.89;100844.53;5056905;28;20036;-70
2022/12/10 06:59:57;;;;;;;116.47;62.07;;;;;;;-1.88;98.91;100853.22;5073805;28;20110;-70
2022/12/10 07:02:23;;;;;;;108.57;59.03;;;;;;;-1.76;98.79;100852.22;5057230;28;20043;-69
2022/12/10 07:04:48;;;;;;;109.97;55.23;;;;;;;-1.77;99.27;100853.94;5058419;28;20036;-70
2022/12/10 07:07:16;;;;;;;111.87;57.93;;;;;;;-1.77;99.10;100863.50;5053338;28;20127;-70
2022/12/10 07:09:42;;;;;;;114.97;62.77;;;;;;;-1.80;99.61;100866.16;5054185;28;20112;-70
2022/12/10 07:12:07;;;;;;;109.90;63.10;;;;;;;-1.77;99.33;100868.72;5053404;28;20645;-70
2022/12/10 07:14:36;;;;;;;110.67;55.67;;;;;;;-1.81;98.95;100869.66;5061678;28;20030;-70
2022/12/10 07:17:02;;;;;;;111.70;57.80;;;;;;;-1.85;99.44;100863.63;5063228;28;20043;-69
2022/12/10 07:19:27;;;;;;;113.77;60.47;;;;;;;-1.81;99.30;100864.44;5090595;28;20043;-70
2022/12/10 07:21:53;;;;;;;115.00;65.63;;;;;;;-1.83;100.00;100856.63;5091471;28;20068;-70
2022/12/10 07:24:21;;;;;;;117.37;60.00;;;;;;;-1.83;99.92;100870.50;5091616;28;20063;-70
2022/12/10 07:26:49;;;;;;;114.03;61.30;;;;;;;-1.78;99.92;100867.84;5073431;28;20498;-70
2022/12/10 07:29:20;;;;;;;117.53;62.20;;;;;;;-1.76;99.14;100870.47;5056869;28;20032;-69
2022/12/10 07:31:47;;;;;;;119.47;63.90;;;;;;;-1.75;99.46;100873.03;5092162;28;20031;-70
2022/12/10 07:34:13;;;;;;;118.97;64.43;;;;;;;-1.85;99.66;100861.00;5073859;28;20020;-69
2022/12/10 07:36:39;;;;;;;109.30;57.93;;;;;;;-1.75;99.88;100870.44;5073019;28;20115;-69
2022/12/10 07:39:07;;;;;;;118.90;58.70;;;;;;;-1.73;99.61;100875.63;5073223;28;20027;-70
2022/12/10 07:41:33;;;;;;;117.70;65.20;;;;;;;-1.75;99.41;100874.78;5073634;28;20467;-70
2022/12/10 07:43:59;;;;;;;115.00;58.33;;;;;;;-1.72;99.50;100883.41;5072884;28;20055;-70
2022/12/10 07:46:30;;;;;;;118.00;63.57;;;;;;;-1.72;99.93;100885.19;5074453;28;20431;-70
2022/12/10 07:48:55;;;;;;;107.73;58.63;;;;;;;-1.70;99.35;100881.66;5095641;28;20425;-70
2022/12/10 07:51:22;;;;;;;113.67;60.63;;;;;;;-1.64;98.96;100885.94;5076475;28;20039;-69
2022/12/10 07:53:50;;;;;;;118.57;64.47;;;;;;;-1.66;99.91;100885.09;5095507;28;20460;-70
2022/12/10 07:56:16;;;;;;;110.77;55.67;;;;;;;-1.61;98.95;100886.78;5095593;28;20093;-70
2022/12/10 07:58:46;;;;;;;108.23;61.17;;;;;;;-1.67;99.35;100889.44;5095020;28;20028;-70
2022/12/10 08:01:13;;;;;;;;;;;;;;;-1.50;98.90;100896.19;5096109;28;20020;-69
2022/12/10 08:03:39;;;;;;;105.57;54.07;;;;;;;-1.61;99.66;100878.09;5076961;28;19915;-70
2022/12/10 08:06:08;;;;;;;104.50;54.73;;;;;;;-1.61;98.76;100891.13;5077231;28;20024;-70
2022/12/10 08:08:37;;;;;;;105.03;54.87;;;;;;;-1.64;98.88;100894.63;5095205;28;20406;-70
2022/12/10 08:11:04;;;;;;;107.82;55.85;;;;;;;-1.54;99.75;100895.38;5076947;28;20073;-70
2022/12/10 08:13:30;;;;;;;111.00;60.27;;;;;;;-1.56;99.38;100898.88;5076606;28;20030;-69
2022/12/10 08:16:02;;;;;;;112.10;62.00;;;;;;;-1.54;99.36;100897.13;5077132;28;20048;-70
2022/12/10 08:18:28;;;;;;;111.53;57.07;;;;;;;-1.54;99.64;100902.34;5076740;28;20028;-70
2022/12/10 08:20:54;;;;;;;111.87;64.43;;;;;;;-1.47;99.40;100906.56;5094871;28;20032;-70
2022/12/10 08:23:19;;;;;;;109.77;57.47;;;;;;;-1.54;99.16;100904.94;5076904;28;20095;-70
2022/12/10 08:25:49;;;;;;;110.63;58.63;;;;;;;-1.57;99.31;100916.28;5077029;28;20558;-70
2022/12/10 08:28:15;;;;;;;;;;;;;;;-1.45;99.33;100910.03;5095211;28;20024;-70
2022/12/10 08:30:45;;;;;;;125.77;52.90;;;;;;;-1.61;99.17;100911.97;5076599;28;20010;-70
2022/12/10 08:33:11;;;;;;;140.80;54.80;;;;;;;-1.62;99.20;100918.06;5076449;28;20151;-70
2022/12/10 08:35:37;;;;;;;139.47;59.13;;;;;;;-1.70;99.89;100927.75;5060081;28;20502;-70
2022/12/10 08:38:02;;;;;;;102.83;52.07;;;;;;;-1.67;99.51;100919.88;5076450;28;20036;-70
2022/12/10 08:40:28;;;;;;;113.80;54.63;;;;;;;-1.69;100.00;100930.31;5075854;28;20028;-70
2022/12/10 08:42:56;;;;;;;110.33;61.37;;;;;;;-1.69;100.00;100927.72;5075764;28;20081;-69
2022/12/10 08:45:21;;;;;;;105.93;55.63;;;;;;;-1.64;100.00;100936.34;5094064;28;20041;-69
2022/12/10 08:47:47;;;;;;;99.57;54.23;;;;;;;-1.56;100.00;100930.16;5059500;28;20055;-69
2022/12/10 08:50:12;;;;;;;104.63;56.87;;;;;;;-1.52;100.00;100939.69;5076051;28;20042;-69
2022/12/10 08:52:38;;;;;;;101.37;53.87;;;;;;;-1.53;100.00;100936.22;5094387;28;20031;-69
2022/12/10 08:55:05;;;;;;;97.63;56.50;;;;;;;-1.53;99.76;100936.22;5094335;28;20443;-69
2022/12/10 08:57:31;;;;;;;96.77;49.93;;;;;;;-1.49;99.69;100939.66;5093576;28;20398;-67
2022/12/10 08:59:57;;;;;;;107.07;53.83;;;;;;;-1.50;99.94;100937.91;5055100;28;20036;-66
2022/12/10 09:02:22;;;;;;;91.23;51.17;;;;;;;-1.48;100.00;100941.38;5073685;28;20024;-67
2022/12/10 09:04:50;;;;;;;116.13;57.10;;;;;;;-1.55;100.00;100945.81;5073838;28;20100;-67
2022/12/10 09:07:16;;;;;;;104.70;47.60;;;;;;;-1.50;99.46;100950.94;5056004;28;20099;-67
2022/12/10 09:09:42;;;;;;;102.17;51.70;;;;;;;-1.62;99.87;100951.97;5056484;28;20028;-67
2022/12/10 09:12:07;;;;;;;103.73;44.80;;;;;;;-1.64;100.00;100951.13;5073118;28;20021;-66
2022/12/10 09:14:33;;;;;;;93.23;51.23;;;;;;;-1.66;100.00;100953.75;5089450;28;20056;-66
2022/12/10 09:16:59;;;;;;;92.00;54.60;;;;;;;-1.64;100.00;100956.34;5088916;28;20032;-66
2022/12/10 09:19:25;;;;;;;93.43;47.97;;;;;;;-1.58;100.00;100952.81;5083142;28;20062;-67
2022/12/10 09:21:50;;;;;;;133.43;52.57;;;;;;;-1.59;100.00;100949.31;5038857;28;20028;-66
2022/12/10 09:24:16;;;;;;;88.00;48.80;;;;;;;-1.54;100.00;100957.97;5075700;28;20035;-67
2022/12/10 09:26:42;;;;;;;98.97;54.47;;;;;;;-1.47;100.00;100949.19;5059347;28;20433;-66
2022/12/10 09:29:08;;;;;;;105.03;49.27;;;;;;;-1.47;100.00;100957.03;5093376;28;20110;-66
2022/12/10 09:31:33;;;;;;;128.40;55.40;;;;;;;-1.49;100.00;100958.78;5058439;28;20020;-66
2022/12/10 09:33:58;;;;;;;121.23;46.30;;;;;;;-1.47;99.89;100958.75;5055203;28;20033;-67
2022/12/10 09:36:24;;;;;;;124.67;50.40;;;;;;;-1.54;99.78;100959.72;5038582;28;20033;-66
2022/12/10 09:38:51;;;;;;;116.17;44.57;;;;;;;-1.55;99.45;100958.84;5055439;28;20403;-66
2022/12/10 09:41:26;;;;;;;94.70;51.60;;;;;;;-1.56;100.00;100972.75;5055734;28;20146;-66
2022/12/10 09:44:05;;;;;;;89.83;45.33;;;;;;;-1.52;100.00;100971.00;5058479;28;20027;-66
2022/12/10 09:46:33;;;;;;;115.07;48.00;;;;;;;-1.54;99.71;100975.34;5092908;28;20380;-66
2022/12/10 09:49:20;;;;;;;104.27;49.63;;;;;;;-1.57;99.82;100976.25;5093398;28;20085;-66
2022/12/10 09:51:46;;;;;;;92.53;52.67;;;;;;;-1.51;100.00;100976.19;5075704;28;20020;-66
2022/12/10 09:54:22;;;;;;;87.03;44.53;;;;;;;-1.53;100.00;100974.47;5075063;28;20028;-66
2022/12/10 09:56:50;;;;;;;89.60;45.20;;;;;;;-1.57;100.00;100975.38;5072853;28;20110;-66
2022/12/10 09:59:21;;;;;;;83.60;46.60;;;;;;;-1.56;100.00;100974.50;5077961;28;20515;-66
2022/12/10 10:02:01;;;;;;;85.00;48.23;;;;;;;-1.53;100.00;100979.69;5059714;28;20032;-66
2022/12/10 10:04:27;;;;;;;88.28;41.90;;;;;;;-1.53;99.93;100983.19;5091784;28;20032;-66
2022/12/10 10:06:53;;;;;;;89.20;45.73;;;;;;;-1.54;99.39;100991.84;5075584;28;20081;-66
2022/12/10 10:09:22;;;;;;;77.97;41.50;;;;;;;-1.48;99.80;100985.72;5092792;28;20024;-66
2022/12/10 10:11:48;;;;;;;83.75;44.85;;;;;;;-1.50;100.00;100985.75;5092743;28;20129;-66
2022/12/10 10:14:37;;;;;;;86.07;48.10;;;;;;;-1.40;100.00;100996.94;5092223;28;20130;-66
2022/12/10 10:17:11;;;;;;;85.50;43.60;;;;;;;-1.40;99.82;100999.53;5091840;28;20102;-66
2022/12/10 10:19:39;;;;;;;87.80;46.80;;;;;;;-1.38;99.84;101001.25;5099769;28;20111;-66
2022/12/10 10:22:05;;;;;;;93.67;50.47;;;;;;;-1.37;99.18;100999.50;5058004;28;20050;-66
2022/12/10 10:24:36;;;;;;;97.20;46.10;;;;;;;-1.36;100.00;100988.16;5092598;28;20032;-66
2022/12/10 10:27:14;;;;;;;116.63;50.43;;;;;;;-1.38;99.71;100992.56;5095215;28;20036;-66
2022/12/10 10:29:39;;;;;;;94.97;51.03;;;;;;;-1.33;99.51;100990.75;5076621;28;20039;-66
2022/12/10 10:32:19;;;;;;;120.17;49.47;;;;;;;-1.41;99.90;101006.50;5092631;28;20048;-66
2022/12/10 10:34:46;;;;;;;92.77;49.40;;;;;;;-1.44;100.00;100990.88;5092279;28;20058;-67
2022/12/10 10:37:29;;;;;;;100.10;49.23;;;;;;;-1.36;100.00;100996.00;5092106;28;20039;-66
2022/12/10 10:39:56;;;;;;;97.00;50.27;;;;;;;-1.37;100.00;101002.09;5068664;28;20028;-66
2022/12/10 10:42:38;;;;;;;97.40;46.53;;;;;;;-1.34;99.80;100991.63;5089222;28;20028;-66
2022/12/10 10:45:25;;;;;;;90.70;48.90;;;;;;;-1.33;99.78;100992.50;5065159;28;20033;-66
2022/12/10 10:48:03;;;;;;;94.00;44.97;;;;;;;-1.28;99.97;100995.91;5048821;28;20120;-66
2022/12/10 10:50:29;;;;;;;112.30;47.77;;;;;;;-1.34;99.40;100991.63;5050150;28;20107;-66
2022/12/10 10:52:54;;;;;;;92.70;45.53;;;;;;;-1.32;99.53;100992.50;5048699;28;20107;-66
2022/12/10 10:55:35;;;;;;;97.13;51.50;;;;;;;-1.33;99.77;100990.75;5049076;28;20488;-66
2022/12/10 10:58:00;;;;;;;88.90;46.10;;;;;;;-1.38;99.41;100980.38;5050630;28;20541;-66
2022/12/10 11:00:26;;;;;;;102.67;48.50;;;;;;;-1.40;99.51;100987.34;5051617;28;20104;-66
2022/12/10 11:02:52;;;;;;;90.23;44.43;;;;;;;-1.41;99.69;100990.84;5033466;28;20091;-66
2022/12/10 11:05:30;;;;;;;91.97;48.50;;;;;;;-1.36;100.00;100990.78;5051076;28;20127;-66
2022/12/10 11:08:13;;;;;;;88.33;43.17;;;;;;;-1.34;99.81;100988.16;5050321;28;20032;-66
2022/12/10 11:11:06;;;;;;;78.83;44.63;;;;;;;-1.32;99.58;100979.44;5049962;28;20025;-66
2022/12/10 11:13:36;;;;;;;73.57;39.47;;;;;;;-1.38;98.69;100980.38;5049730;28;20052;-66
2022/12/10 11:16:31;;;;;;;74.75;40.65;;;;;;;-1.29;99.82;100978.56;5048894;28;20385;-67
2022/12/10 11:19:05;;;;;;;92.73;44.00;;;;;;;-1.36;98.92;100977.75;5028663;28;20048;-66
2022/12/10 11:21:32;;;;;;;83.77;45.80;;;;;;;-1.32;99.41;100970.72;5048593;28;20028;-66